sensor_id;sensor_type;location;lat;lon;timestamp;P1;durP1;ratioP1;P2;durP2;ratioP2
77736;SDS011;66903;59.926;30.404;2024-01-06T00:00:33;2.70;;;0.80;;
77736;SDS011;66903;59.926;30.404;2024-01-06T00:05:43;2.63;;;0.95;;
77736;SDS011;66903;59.926;30.404;2024-01-06T00:10:54;1.45;;;0.70;;
77736;SDS011;66903;59.926;30.404;2024-01-06T00:16:05;2.63;;;0.70;;
77736;SDS011;66903;59.926;30.404;2024-01-06T00:21:16;2.58;;;0.68;;
77736;SDS011;66903;59.926;30.404;2024-01-06T00:26:27;1.55;;;0.50;;
77736;SDS011;66903;59.926;30.404;2024-01-06T00:31:38;2.58;;;0.90;;
77736;SDS011;66903;59.926;30.404;2024-01-06T00:36:49;1.85;;;0.77;;
77736;SDS011;66903;59.926;30.404;2024-01-06T00:41:59;2.38;;;0.70;;
77736;SDS011;66903;59.926;30.404;2024-01-06T00:47:10;2.13;;;0.80;;
77736;SDS011;66903;59.926;30.404;2024-01-06T00:52:21;3.33;;;1.10;;
77736;SDS011;66903;59.926;30.404;2024-01-06T00:57:32;3.30;;;0.73;;
77736;SDS011;66903;59.926;30.404;2024-01-06T01:02:42;1.35;;;0.50;;
77736;SDS011;66903;59.926;30.404;2024-01-06T01:07:53;2.90;;;0.90;;
77736;SDS011;66903;59.926;30.404;2024-01-06T01:13:04;1.40;;;0.60;;
77736;SDS011;66903;59.926;30.404;2024-01-06T01:18:15;1.58;;;0.50;;
77736;SDS011;66903;59.926;30.404;2024-01-06T01:23:25;2.22;;;0.77;;
77736;SDS011;66903;59.926;30.404;2024-01-06T01:28:36;2.53;;;0.98;;
77736;SDS011;66903;59.926;30.404;2024-01-06T01:33:47;1.83;;;0.70;;
77736;SDS011;66903;59.926;30.404;2024-01-06T01:38:58;3.35;;;1.00;;
77736;SDS011;66903;59.926;30.404;2024-01-06T01:44:09;2.42;;;0.82;;
77736;SDS011;66903;59.926;30.404;2024-01-06T01:49:19;2.03;;;0.80;;
77736;SDS011;66903;59.926;30.404;2024-01-06T01:54:31;2.17;;;0.90;;
77736;SDS011;66903;59.926;30.404;2024-01-06T01:59:42;2.65;;;0.95;;
77736;SDS011;66903;59.926;30.404;2024-01-06T02:04:52;3.15;;;1.15;;
77736;SDS011;66903;59.926;30.404;2024-01-06T02:10:04;3.17;;;1.00;;
77736;SDS011;66903;59.926;30.404;2024-01-06T02:15:15;2.47;;;0.93;;
77736;SDS011;66903;59.926;30.404;2024-01-06T02:20:26;2.33;;;0.85;;
77736;SDS011;66903;59.926;30.404;2024-01-06T02:25:40;3.50;;;0.80;;
77736;SDS011;66903;59.926;30.404;2024-01-06T02:30:51;1.70;;;0.50;;
77736;SDS011;66903;59.926;30.404;2024-01-06T02:36:02;1.95;;;0.70;;
77736;SDS011;66903;59.926;30.404;2024-01-06T02:41:13;2.08;;;0.80;;
77736;SDS011;66903;59.926;30.404;2024-01-06T02:46:24;3.35;;;1.00;;
77736;SDS011;66903;59.926;30.404;2024-01-06T02:51:34;6.35;;;1.10;;
77736;SDS011;66903;59.926;30.404;2024-01-06T02:56:45;2.90;;;1.00;;
77736;SDS011;66903;59.926;30.404;2024-01-06T03:01:56;3.65;;;0.80;;
77736;SDS011;66903;59.926;30.404;2024-01-06T03:07:07;2.38;;;0.90;;
77736;SDS011;66903;59.926;30.404;2024-01-06T03:12:17;4.38;;;1.15;;
77736;SDS011;66903;59.926;30.404;2024-01-06T03:17:28;2.95;;;1.00;;
77736;SDS011;66903;59.926;30.404;2024-01-06T03:22:39;3.45;;;1.08;;
77736;SDS011;66903;59.926;30.404;2024-01-06T03:27:49;2.85;;;0.85;;
77736;SDS011;66903;59.926;30.404;2024-01-06T03:33:00;2.85;;;1.02;;
77736;SDS011;66903;59.926;30.404;2024-01-06T03:38:11;2.78;;;0.90;;
77736;SDS011;66903;59.926;30.404;2024-01-06T03:43:22;3.45;;;1.10;;
77736;SDS011;66903;59.926;30.404;2024-01-06T03:48:33;3.03;;;1.05;;
77736;SDS011;66903;59.926;30.404;2024-01-06T03:53:43;3.45;;;1.00;;
77736;SDS011;66903;59.926;30.404;2024-01-06T03:58:54;2.85;;;1.13;;
77736;SDS011;66903;59.926;30.404;2024-01-06T04:04:05;3.63;;;1.33;;
77736;SDS011;66903;59.926;30.404;2024-01-06T04:09:17;3.40;;;1.00;;
77736;SDS011;66903;59.926;30.404;2024-01-06T04:14:28;3.35;;;0.90;;
77736;SDS011;66903;59.926;30.404;2024-01-06T04:19:38;2.45;;;1.00;;
77736;SDS011;66903;59.926;30.404;2024-01-06T04:24:49;3.17;;;1.10;;
77736;SDS011;66903;59.926;30.404;2024-01-06T04:30:00;2.70;;;1.00;;
77736;SDS011;66903;59.926;30.404;2024-01-06T04:35:10;2.83;;;0.93;;
77736;SDS011;66903;59.926;30.404;2024-01-06T04:40:21;1.95;;;0.60;;
77736;SDS011;66903;59.926;30.404;2024-01-06T04:45:32;3.63;;;0.88;;
77736;SDS011;66903;59.926;30.404;2024-01-06T04:50:43;2.97;;;0.90;;
77736;SDS011;66903;59.926;30.404;2024-01-06T04:55:53;2.35;;;0.80;;
77736;SDS011;66903;59.926;30.404;2024-01-06T05:01:04;4.43;;;0.90;;
77736;SDS011;66903;59.926;30.404;2024-01-06T05:06:15;3.63;;;0.93;;
77736;SDS011;66903;59.926;30.404;2024-01-06T05:11:26;2.92;;;0.90;;
77736;SDS011;66903;59.926;30.404;2024-01-06T05:16:36;1.85;;;0.65;;
77736;SDS011;66903;59.926;30.404;2024-01-06T05:21:47;1.88;;;0.60;;
77736;SDS011;66903;59.926;30.404;2024-01-06T05:26:59;3.65;;;0.90;;
77736;SDS011;66903;59.926;30.404;2024-01-06T05:32:09;1.77;;;0.82;;
77736;SDS011;66903;59.926;30.404;2024-01-06T05:37:20;2.25;;;0.80;;
77736;SDS011;66903;59.926;30.404;2024-01-06T05:42:31;2.80;;;0.90;;
77736;SDS011;66903;59.926;30.404;2024-01-06T05:47:43;1.70;;;0.65;;
77736;SDS011;66903;59.926;30.404;2024-01-06T05:52:54;0.90;;;0.35;;
77736;SDS011;66903;59.926;30.404;2024-01-06T05:58:04;1.63;;;0.75;;
77736;SDS011;66903;59.926;30.404;2024-01-06T06:03:15;2.33;;;0.80;;
77736;SDS011;66903;59.926;30.404;2024-01-06T06:08:26;2.08;;;0.80;;
77736;SDS011;66903;59.926;30.404;2024-01-06T06:13:40;3.03;;;0.80;;
77736;SDS011;66903;59.926;30.404;2024-01-06T06:18:51;1.60;;;0.70;;
77736;SDS011;66903;59.926;30.404;2024-01-06T06:24:02;2.03;;;0.68;;
77736;SDS011;66903;59.926;30.404;2024-01-06T06:29:13;1.95;;;0.60;;
77736;SDS011;66903;59.926;30.404;2024-01-06T06:34:24;2.45;;;0.75;;
77736;SDS011;66903;59.926;30.404;2024-01-06T06:39:35;2.08;;;0.73;;
77736;SDS011;66903;59.926;30.404;2024-01-06T06:44:46;1.55;;;0.65;;
77736;SDS011;66903;59.926;30.404;2024-01-06T06:49:57;1.33;;;0.52;;
77736;SDS011;66903;59.926;30.404;2024-01-06T06:55:08;2.10;;;0.80;;
77736;SDS011;66903;59.926;30.404;2024-01-06T07:00:19;2.33;;;0.50;;
77736;SDS011;66903;59.926;30.404;2024-01-06T07:05:31;2.03;;;0.70;;
77736;SDS011;66903;59.926;30.404;2024-01-06T07:10:42;1.08;;;0.50;;
77736;SDS011;66903;59.926;30.404;2024-01-06T07:15:53;2.00;;;0.50;;
77736;SDS011;66903;59.926;30.404;2024-01-06T07:21:06;1.88;;;0.57;;
77736;SDS011;66903;59.926;30.404;2024-01-06T07:26:18;0.98;;;0.50;;
77736;SDS011;66903;59.926;30.404;2024-01-06T07:31:28;2.10;;;0.63;;
77736;SDS011;66903;59.926;30.404;2024-01-06T07:36:39;1.98;;;0.60;;
77736;SDS011;66903;59.926;30.404;2024-01-06T07:41:50;1.85;;;0.70;;
77736;SDS011;66903;59.926;30.404;2024-01-06T07:47:01;0.68;;;0.47;;
77736;SDS011;66903;59.926;30.404;2024-01-06T07:52:15;3.42;;;0.50;;
77736;SDS011;66903;59.926;30.404;2024-01-06T07:57:27;0.77;;;0.43;;
77736;SDS011;66903;59.926;30.404;2024-01-06T08:02:37;1.73;;;0.60;;
77736;SDS011;66903;59.926;30.404;2024-01-06T08:07:49;0.47;;;0.25;;
77736;SDS011;66903;59.926;30.404;2024-01-06T08:13:01;2.10;;;0.60;;
77736;SDS011;66903;59.926;30.404;2024-01-06T08:18:12;0.82;;;0.50;;
77736;SDS011;66903;59.926;30.404;2024-01-06T08:23:23;0.85;;;0.25;;
77736;SDS011;66903;59.926;30.404;2024-01-06T08:28:34;1.63;;;0.60;;
77736;SDS011;66903;59.926;30.404;2024-01-06T08:33:45;0.82;;;0.40;;
77736;SDS011;66903;59.926;30.404;2024-01-06T08:38:55;1.42;;;0.52;;
77736;SDS011;66903;59.926;30.404;2024-01-06T08:44:06;1.35;;;0.60;;
77736;SDS011;66903;59.926;30.404;2024-01-06T08:49:17;0.88;;;0.40;;
77736;SDS011;66903;59.926;30.404;2024-01-06T08:54:28;0.88;;;0.45;;
77736;SDS011;66903;59.926;30.404;2024-01-06T08:59:39;1.15;;;0.50;;
77736;SDS011;66903;59.926;30.404;2024-01-06T09:04:50;1.10;;;0.45;;
77736;SDS011;66903;59.926;30.404;2024-01-06T09:10:01;1.38;;;0.50;;
77736;SDS011;66903;59.926;30.404;2024-01-06T09:15:14;2.55;;;0.68;;
77736;SDS011;66903;59.926;30.404;2024-01-06T09:20:25;0.70;;;0.40;;
77736;SDS011;66903;59.926;30.404;2024-01-06T09:25:37;1.67;;;0.65;;
77736;SDS011;66903;59.926;30.404;2024-01-06T09:30:50;1.45;;;0.57;;
77736;SDS011;66903;59.926;30.404;2024-01-06T09:36:02;0.88;;;0.30;;
77736;SDS011;66903;59.926;30.404;2024-01-06T09:41:13;1.33;;;0.40;;
77736;SDS011;66903;59.926;30.404;2024-01-06T09:46:25;1.90;;;0.50;;
77736;SDS011;66903;59.926;30.404;2024-01-06T09:51:37;1.75;;;0.60;;
77736;SDS011;66903;59.926;30.404;2024-01-06T09:56:50;2.05;;;0.57;;
77736;SDS011;66903;59.926;30.404;2024-01-06T12:40:18;1.05;;;0.45;;
77736;SDS011;66903;59.926;30.404;2024-01-06T12:45:30;0.73;;;0.40;;
77736;SDS011;66903;59.926;30.404;2024-01-06T12:50:41;0.88;;;0.32;;
77736;SDS011;66903;59.926;30.404;2024-01-06T12:55:51;1.10;;;0.40;;
77736;SDS011;66903;59.926;30.404;2024-01-06T13:01:02;0.85;;;0.35;;
77736;SDS011;66903;59.926;30.404;2024-01-06T13:06:13;1.55;;;0.50;;
77736;SDS011;66903;59.926;30.404;2024-01-06T13:11:26;1.08;;;0.50;;
77736;SDS011;66903;59.926;30.404;2024-01-06T13:16:38;0.70;;;0.38;;
77736;SDS011;66903;59.926;30.404;2024-01-06T13:21:49;1.25;;;0.45;;
77736;SDS011;66903;59.926;30.404;2024-01-06T13:26:59;0.77;;;0.35;;
77736;SDS011;66903;59.926;30.404;2024-01-06T13:32:13;1.80;;;0.57;;
77736;SDS011;66903;59.926;30.404;2024-01-06T13:37:25;0.73;;;0.30;;
77736;SDS011;66903;59.926;30.404;2024-01-06T13:42:36;1.33;;;0.50;;
77736;SDS011;66903;59.926;30.404;2024-01-06T13:47:47;1.02;;;0.38;;
77736;SDS011;66903;59.926;30.404;2024-01-06T13:52:58;1.25;;;0.52;;
77736;SDS011;66903;59.926;30.404;2024-01-06T13:58:10;1.13;;;0.60;;
77736;SDS011;66903;59.926;30.404;2024-01-06T14:03:21;1.63;;;0.50;;
77736;SDS011;66903;59.926;30.404;2024-01-06T14:08:32;1.75;;;0.45;;
77736;SDS011;66903;59.926;30.404;2024-01-06T14:13:43;1.33;;;0.50;;
77736;SDS011;66903;59.926;30.404;2024-01-06T14:18:58;1.85;;;0.52;;
77736;SDS011;66903;59.926;30.404;2024-01-06T14:24:09;2.08;;;0.55;;
77736;SDS011;66903;59.926;30.404;2024-01-06T14:29:20;3.97;;;0.75;;
77736;SDS011;66903;59.926;30.404;2024-01-06T14:34:31;2.13;;;0.60;;
77736;SDS011;66903;59.926;30.404;2024-01-06T14:39:41;1.13;;;0.47;;
77736;SDS011;66903;59.926;30.404;2024-01-06T14:44:52;2.20;;;0.57;;
77736;SDS011;66903;59.926;30.404;2024-01-06T14:50:03;1.42;;;0.60;;
77736;SDS011;66903;59.926;30.404;2024-01-06T14:55:15;2.08;;;0.55;;
77736;SDS011;66903;59.926;30.404;2024-01-06T15:00:25;2.25;;;0.70;;
77736;SDS011;66903;59.926;30.404;2024-01-06T15:05:37;1.33;;;0.52;;
77736;SDS011;66903;59.926;30.404;2024-01-06T15:10:48;0.98;;;0.60;;
77736;SDS011;66903;59.926;30.404;2024-01-06T15:15:59;2.50;;;0.70;;
77736;SDS011;66903;59.926;30.404;2024-01-06T15:21:09;1.58;;;0.45;;
77736;SDS011;66903;59.926;30.404;2024-01-06T15:26:24;2.20;;;0.80;;
77736;SDS011;66903;59.926;30.404;2024-01-06T15:31:35;1.80;;;0.75;;
77736;SDS011;66903;59.926;30.404;2024-01-06T15:36:47;1.80;;;0.68;;
77736;SDS011;66903;59.926;30.404;2024-01-06T15:41:58;5.07;;;0.85;;
77736;SDS011;66903;59.926;30.404;2024-01-06T15:47:09;1.73;;;0.60;;
77736;SDS011;66903;59.926;30.404;2024-01-06T15:52:20;2.33;;;0.70;;
77736;SDS011;66903;59.926;30.404;2024-01-06T15:57:31;2.13;;;0.70;;
77736;SDS011;66903;59.926;30.404;2024-01-06T16:02:43;1.17;;;0.60;;
77736;SDS011;66903;59.926;30.404;2024-01-06T16:07:54;2.28;;;0.70;;
77736;SDS011;66903;59.926;30.404;2024-01-06T16:13:05;1.42;;;0.50;;
77736;SDS011;66903;59.926;30.404;2024-01-06T16:18:15;5.55;;;1.33;;
77736;SDS011;66903;59.926;30.404;2024-01-06T16:23:26;2.75;;;0.68;;
77736;SDS011;66903;59.926;30.404;2024-01-06T16:28:37;2.13;;;0.60;;
77736;SDS011;66903;59.926;30.404;2024-01-06T16:33:48;1.83;;;0.50;;
77736;SDS011;66903;59.926;30.404;2024-01-06T16:38:59;2.25;;;0.80;;
77736;SDS011;66903;59.926;30.404;2024-01-06T16:44:09;1.48;;;0.50;;
77736;SDS011;66903;59.926;30.404;2024-01-06T16:49:20;0.93;;;0.50;;
77736;SDS011;66903;59.926;30.404;2024-01-06T16:54:31;3.75;;;1.02;;
77736;SDS011;66903;59.926;30.404;2024-01-06T16:59:43;3.38;;;0.95;;
77736;SDS011;66903;59.926;30.404;2024-01-06T17:04:54;1.25;;;0.65;;
77736;SDS011;66903;59.926;30.404;2024-01-06T17:10:05;2.42;;;0.90;;
77736;SDS011;66903;59.926;30.404;2024-01-06T17:15:16;2.70;;;0.70;;
77736;SDS011;66903;59.926;30.404;2024-01-06T17:20:27;1.92;;;0.55;;
77736;SDS011;66903;59.926;30.404;2024-01-06T17:25:38;2.88;;;0.70;;
77736;SDS011;66903;59.926;30.404;2024-01-06T17:30:49;1.63;;;0.70;;
77736;SDS011;66903;59.926;30.404;2024-01-06T17:35:59;2.05;;;0.50;;
77736;SDS011;66903;59.926;30.404;2024-01-06T17:41:10;2.42;;;0.82;;
77736;SDS011;66903;59.926;30.404;2024-01-06T17:46:21;5.70;;;1.50;;
77736;SDS011;66903;59.926;30.404;2024-01-06T17:51:34;5.15;;;1.40;;
77736;SDS011;66903;59.926;30.404;2024-01-06T17:56:45;6.07;;;1.20;;
77736;SDS011;66903;59.926;30.404;2024-01-06T18:01:57;10.80;;;2.00;;
77736;SDS011;66903;59.926;30.404;2024-01-06T18:07:09;10.88;;;2.15;;
77736;SDS011;66903;59.926;30.404;2024-01-06T18:12:20;7.05;;;1.85;;
77736;SDS011;66903;59.926;30.404;2024-01-06T18:17:30;9.38;;;1.90;;
77736;SDS011;66903;59.926;30.404;2024-01-06T18:22:44;8.95;;;1.80;;
77736;SDS011;66903;59.926;30.404;2024-01-06T18:27:55;6.25;;;1.55;;
77736;SDS011;66903;59.926;30.404;2024-01-06T18:33:05;8.75;;;1.42;;
77736;SDS011;66903;59.926;30.404;2024-01-06T18:38:16;5.97;;;1.27;;
77736;SDS011;66903;59.926;30.404;2024-01-06T18:43:27;3.20;;;1.02;;
77736;SDS011;66903;59.926;30.404;2024-01-06T18:48:38;3.05;;;0.93;;
77736;SDS011;66903;59.926;30.404;2024-01-06T18:53:49;3.30;;;0.90;;
77736;SDS011;66903;59.926;30.404;2024-01-06T18:59:00;3.63;;;1.00;;
77736;SDS011;66903;59.926;30.404;2024-01-06T19:04:11;4.10;;;0.90;;
77736;SDS011;66903;59.926;30.404;2024-01-06T19:09:21;2.65;;;0.90;;
77736;SDS011;66903;59.926;30.404;2024-01-06T19:14:32;4.00;;;1.00;;
77736;SDS011;66903;59.926;30.404;2024-01-06T19:19:45;1.77;;;0.73;;
77736;SDS011;66903;59.926;30.404;2024-01-06T19:24:56;2.50;;;0.80;;
77736;SDS011;66903;59.926;30.404;2024-01-06T19:30:07;3.47;;;0.77;;
77736;SDS011;66903;59.926;30.404;2024-01-06T19:35:22;2.45;;;0.70;;
77736;SDS011;66903;59.926;30.404;2024-01-06T19:40:33;1.67;;;0.70;;
77736;SDS011;66903;59.926;30.404;2024-01-06T19:45:44;1.73;;;0.68;;
77736;SDS011;66903;59.926;30.404;2024-01-06T19:50:55;1.67;;;0.68;;
77736;SDS011;66903;59.926;30.404;2024-01-06T19:56:06;3.72;;;1.02;;
77736;SDS011;66903;59.926;30.404;2024-01-06T20:01:23;2.47;;;0.80;;
77736;SDS011;66903;59.926;30.404;2024-01-06T20:06:34;2.20;;;0.80;;
77736;SDS011;66903;59.926;30.404;2024-01-06T20:11:45;1.73;;;0.70;;
77736;SDS011;66903;59.926;30.404;2024-01-06T20:16:56;1.30;;;0.47;;
77736;SDS011;66903;59.926;30.404;2024-01-06T20:22:06;1.90;;;0.60;;
77736;SDS011;66903;59.926;30.404;2024-01-06T20:27:18;2.28;;;0.60;;
77736;SDS011;66903;59.926;30.404;2024-01-06T20:32:29;2.35;;;0.70;;
77736;SDS011;66903;59.926;30.404;2024-01-06T20:37:40;2.00;;;0.70;;
77736;SDS011;66903;59.926;30.404;2024-01-06T20:42:51;2.10;;;0.70;;
77736;SDS011;66903;59.926;30.404;2024-01-06T20:48:02;2.03;;;0.63;;
77736;SDS011;66903;59.926;30.404;2024-01-06T20:53:15;1.92;;;0.60;;
77736;SDS011;66903;59.926;30.404;2024-01-06T20:58:26;3.22;;;0.70;;
77736;SDS011;66903;59.926;30.404;2024-01-06T21:03:36;3.95;;;1.10;;
77736;SDS011;66903;59.926;30.404;2024-01-06T21:08:51;7.78;;;1.25;;
77736;SDS011;66903;59.926;30.404;2024-01-06T21:14:02;5.68;;;1.10;;
77736;SDS011;66903;59.926;30.404;2024-01-06T21:19:13;2.50;;;0.68;;
77736;SDS011;66903;59.926;30.404;2024-01-06T21:24:24;3.58;;;1.10;;
77736;SDS011;66903;59.926;30.404;2024-01-06T21:29:35;3.08;;;1.20;;
77736;SDS011;66903;59.926;30.404;2024-01-06T21:34:46;2.50;;;0.80;;
77736;SDS011;66903;59.926;30.404;2024-01-06T21:39:57;4.00;;;1.05;;
77736;SDS011;66903;59.926;30.404;2024-01-06T21:45:08;2.85;;;0.98;;
77736;SDS011;66903;59.926;30.404;2024-01-06T21:50:19;3.08;;;0.93;;
77736;SDS011;66903;59.926;30.404;2024-01-06T21:55:30;3.17;;;0.95;;
77736;SDS011;66903;59.926;30.404;2024-01-06T22:00:41;3.97;;;1.10;;
77736;SDS011;66903;59.926;30.404;2024-01-06T22:05:52;3.03;;;1.08;;
77736;SDS011;66903;59.926;30.404;2024-01-06T22:11:03;4.90;;;1.15;;
77736;SDS011;66903;59.926;30.404;2024-01-06T22:16:13;3.15;;;1.10;;
77736;SDS011;66903;59.926;30.404;2024-01-06T22:21:26;3.15;;;1.17;;
77736;SDS011;66903;59.926;30.404;2024-01-06T22:26:39;3.10;;;1.10;;
77736;SDS011;66903;59.926;30.404;2024-01-06T22:31:50;2.72;;;0.98;;
77736;SDS011;66903;59.926;30.404;2024-01-06T22:37:00;3.40;;;1.00;;
77736;SDS011;66903;59.926;30.404;2024-01-06T22:42:12;3.17;;;0.90;;
77736;SDS011;66903;59.926;30.404;2024-01-06T22:47:25;3.70;;;1.23;;
77736;SDS011;66903;59.926;30.404;2024-01-06T22:52:36;3.80;;;1.20;;
77736;SDS011;66903;59.926;30.404;2024-01-06T22:57:47;3.40;;;1.30;;
77736;SDS011;66903;59.926;30.404;2024-01-06T23:02:57;3.70;;;1.50;;
77736;SDS011;66903;59.926;30.404;2024-01-06T23:08:08;3.22;;;1.30;;
77736;SDS011;66903;59.926;30.404;2024-01-06T23:13:21;3.88;;;1.33;;
77736;SDS011;66903;59.926;30.404;2024-01-06T23:18:31;3.95;;;1.23;;
77736;SDS011;66903;59.926;30.404;2024-01-06T23:23:42;4.43;;;1.52;;
77736;SDS011;66903;59.926;30.404;2024-01-06T23:28:53;4.78;;;1.27;;
77736;SDS011;66903;59.926;30.404;2024-01-06T23:34:04;4.82;;;1.17;;
77736;SDS011;66903;59.926;30.404;2024-01-06T23:39:15;3.70;;;1.05;;
77736;SDS011;66903;59.926;30.404;2024-01-06T23:44:25;3.75;;;1.30;;
77736;SDS011;66903;59.926;30.404;2024-01-06T23:49:36;3.88;;;1.23;;
77736;SDS011;66903;59.926;30.404;2024-01-06T23:54:47;4.13;;;1.50;;
77736;SDS011;66903;59.926;30.404;2024-01-06T23:59:57;4.32;;;1.60;;
